Terminal Aerodrome Forecast
Issued by NWS

Home | Current Version | Previous Version | Text Only | Print | Product List | Glossary On
Versions: 1 2 3 4 5 6 7 8 9 10 11 12 13 14 15 16 17 18 19 20 21 22 23 24 25 26 27 28
000
FTUS45 KPSR 281100
TAFIWA
TAF
KIWA 281120Z 2812/2912 12004KT P6SM FEW250
     FM282000 29003KT P6SM SCT250
     FM290500 11004KT P6SM SCT150 OVC250
      AMD LTD TO CLD VIS AND WIND TIL 281300=

USA.gov is the U.S. government's official web portal to all federal, state and local government web resources and services.